createdAt,value
2022-08-26T00:00:00.695Z,63.50
2022-08-26T00:02:03.922Z,63.50
2022-08-26T00:04:07.030Z,63.30
2022-08-26T00:06:10.156Z,63.50
2022-08-26T00:08:16.285Z,63.70
2022-08-26T00:10:19.153Z,63.70
2022-08-26T00:12:35.959Z,64.00
2022-08-26T00:14:40.416Z,64.10
2022-08-26T00:16:47.586Z,64.00
2022-08-26T00:18:51.290Z,64.00
2022-08-26T00:20:55.115Z,64.10
2022-08-26T00:22:58.147Z,64.00
2022-08-26T00:25:01.105Z,64.10
2022-08-26T00:27:04.386Z,64.00
2022-08-26T00:29:09.423Z,64.20
2022-08-26T00:31:12.310Z,64.30
2022-08-26T00:33:17.675Z,64.40
2022-08-26T00:35:21.472Z,64.30
2022-08-26T00:37:25.768Z,64.50
2022-08-26T00:39:28.600Z,64.50
2022-08-26T00:41:31.444Z,64.60
2022-08-26T00:43:47.554Z,64.60
2022-08-26T00:45:56.428Z,64.50
2022-08-26T00:48:02.526Z,64.60
2022-08-26T00:50:15.382Z,64.60
2022-08-26T00:52:21.968Z,64.80
2022-08-26T00:54:32.436Z,64.80
2022-08-26T00:56:39.018Z,64.90
2022-08-26T00:58:43.079Z,64.90
2022-08-26T01:00:46.522Z,64.70
2022-08-26T01:02:50.561Z,64.70
2022-08-26T01:04:57.744Z,64.90
2022-08-26T01:07:02.400Z,64.80
2022-08-26T01:09:06.087Z,64.70
2022-08-26T01:11:09.632Z,64.70
2022-08-26T01:13:13.915Z,65.40
2022-08-26T01:15:21.570Z,64.70
2022-08-26T01:17:24.469Z,65.00
2022-08-26T01:19:31.962Z,65.10
2022-08-26T01:21:41.875Z,65.20
2022-08-26T01:23:49.909Z,65.10
2022-08-26T01:25:58.818Z,65.20
2022-08-26T01:28:06.301Z,65.40
2022-08-26T01:30:11.912Z,65.40
2022-08-26T01:32:18.906Z,65.40
2022-08-26T01:34:25.176Z,65.40
2022-08-26T01:36:33.431Z,65.50
2022-08-26T01:38:36.246Z,65.60
2022-08-26T01:40:43.888Z,65.60
2022-08-26T01:42:49.074Z,65.60
2022-08-26T01:44:57.296Z,65.60
2022-08-26T01:47:02.005Z,65.80
2022-08-26T01:49:09.237Z,65.80
2022-08-26T01:51:13.125Z,65.80
2022-08-26T01:53:21.442Z,66.00
2022-08-26T01:55:33.432Z,66.10
2022-08-26T01:57:39.310Z,66.00
2022-08-26T01:59:42.279Z,66.10
2022-08-26T02:01:45.133Z,66.10
2022-08-26T02:04:09.109Z,66.20
2022-08-26T02:06:11.892Z,66.20
2022-08-26T02:08:22.736Z,66.30
2022-08-26T02:10:28.120Z,66.50
2022-08-26T02:12:32.020Z,66.60
2022-08-26T02:14:43.993Z,66.70
2022-08-26T02:16:50.265Z,66.70
2022-08-26T02:18:54.810Z,66.60
2022-08-26T02:20:58.343Z,66.70
2022-08-26T02:23:01.199Z,66.70
2022-08-26T02:25:11.920Z,66.80
2022-08-26T02:27:16.397Z,67.60
2022-08-26T02:29:24.757Z,66.80
2022-08-26T02:31:29.791Z,66.70
2022-08-26T02:33:33.020Z,66.90
2022-08-26T02:35:37.204Z,66.80
2022-08-26T02:37:41.773Z,66.90
2022-08-26T02:39:45.323Z,66.90
2022-08-26T02:41:51.381Z,67.00
2022-08-26T02:43:54.901Z,67.00
2022-08-26T02:45:58.143Z,67.20
2022-08-26T02:48:09.208Z,67.30
2022-08-26T02:50:13.117Z,67.20
2022-08-26T02:52:16.234Z,67.10
2022-08-26T02:54:19.746Z,67.10
2022-08-26T02:56:22.917Z,67.10
2022-08-26T02:58:25.757Z,67.20
2022-08-26T03:00:30.379Z,67.30
2022-08-26T03:02:33.160Z,67.50
2022-08-26T03:04:38.151Z,67.70
2022-08-26T03:06:42.534Z,67.60
2022-08-26T03:08:45.489Z,67.70
2022-08-26T03:10:48.416Z,67.70
2022-08-26T03:12:52.445Z,67.60
2022-08-26T03:14:55.209Z,67.70
2022-08-26T03:16:58.034Z,67.80
2022-08-26T03:19:02.369Z,67.80
2022-08-26T03:21:08.923Z,67.90
2022-08-26T03:23:11.881Z,67.90
2022-08-26T03:25:17.541Z,67.90
2022-08-26T03:27:20.633Z,67.90
2022-08-26T03:29:42.217Z,67.90
2022-08-26T03:31:47.073Z,67.90
2022-08-26T03:33:50.006Z,68.20
2022-08-26T03:35:55.701Z,68.30
2022-08-26T03:38:01.087Z,69.80
2022-08-26T03:40:05.338Z,69.20
2022-08-26T03:42:08.326Z,70.00
2022-08-26T03:44:13.815Z,69.40
2022-08-26T03:46:16.923Z,68.80
2022-08-26T03:48:19.771Z,68.70
2022-08-26T03:50:24.353Z,68.60
2022-08-26T03:52:27.464Z,68.60
2022-08-26T03:54:31.908Z,68.50
2022-08-26T03:56:34.703Z,68.50
2022-08-26T03:58:38.822Z,68.50
2022-08-26T04:00:45.810Z,68.70
2022-08-26T04:02:53.288Z,68.70
2022-08-26T04:04:56.294Z,68.70
2022-08-26T04:07:17.457Z,68.70
2022-08-26T04:09:21.532Z,68.90
2022-08-26T04:11:32.166Z,68.90
2022-08-26T04:13:37.548Z,68.80
2022-08-26T04:15:41.009Z,68.90
2022-08-26T04:17:44.254Z,69.10
2022-08-26T04:19:47.227Z,69.50
2022-08-26T04:21:53.156Z,69.90
2022-08-26T04:23:56.373Z,69.80
2022-08-26T04:26:01.443Z,69.70
2022-08-26T04:28:05.623Z,69.60
2022-08-26T04:30:13.658Z,69.50
2022-08-26T04:32:16.891Z,69.50
2022-08-26T04:34:19.722Z,69.40
2022-08-26T04:36:26.615Z,69.50
2022-08-26T04:38:30.706Z,69.50
2022-08-26T04:40:33.614Z,70.00
2022-08-26T04:42:43.296Z,69.50
2022-08-26T04:44:47.391Z,69.50
2022-08-26T04:46:50.168Z,69.40
2022-08-26T04:48:54.600Z,69.40
2022-08-26T04:50:58.584Z,69.50
2022-08-26T04:53:01.668Z,69.60
2022-08-26T04:55:05.964Z,69.60
2022-08-26T04:57:09.475Z,69.60
2022-08-26T04:59:16.918Z,69.60
2022-08-26T05:01:22.844Z,69.80
2022-08-26T05:03:30.265Z,69.90
2022-08-26T05:05:33.413Z,69.90
2022-08-26T05:07:36.759Z,69.90
2022-08-26T05:09:41.208Z,70.60
2022-08-26T05:11:45.569Z,69.90
2022-08-26T05:13:51.457Z,69.80
2022-08-26T05:15:55.778Z,70.00
2022-08-26T05:18:06.668Z,70.10
2022-08-26T05:20:10.856Z,70.10
2022-08-26T05:22:15.084Z,70.40
2022-08-26T05:24:21.243Z,70.30
2022-08-26T05:26:26.009Z,70.00
2022-08-26T05:28:30.830Z,70.10
2022-08-26T05:30:33.803Z,70.20
2022-08-26T05:32:37.193Z,70.20
2022-08-26T05:34:43.022Z,70.20
2022-08-26T05:36:46.043Z,70.20
2022-08-26T05:38:49.426Z,70.30
2022-08-26T05:40:53.217Z,70.20
2022-08-26T05:42:56.296Z,70.20
2022-08-26T05:44:59.211Z,70.00
2022-08-26T05:47:02.135Z,69.70
2022-08-26T05:49:12.508Z,69.50
2022-08-26T05:51:17.271Z,69.60
2022-08-26T05:53:22.663Z,69.90
2022-08-26T05:55:26.797Z,70.10
2022-08-26T05:57:30.642Z,70.20
2022-08-26T05:59:33.380Z,70.10
2022-08-26T06:01:39.606Z,70.10
2022-08-26T06:03:44.795Z,70.10
2022-08-26T06:05:48.155Z,70.30
2022-08-26T06:08:10.799Z,70.40
2022-08-26T06:10:32.635Z,70.50
2022-08-26T06:12:35.742Z,70.10
2022-08-26T06:14:38.523Z,70.30
2022-08-26T06:16:43.764Z,70.50
2022-08-26T06:18:49.099Z,70.50
2022-08-26T06:20:57.012Z,70.50
2022-08-26T06:23:19.773Z,70.50
2022-08-26T06:25:39.234Z,70.60
2022-08-26T06:27:41.977Z,70.70
2022-08-26T06:29:44.765Z,70.60
2022-08-26T06:31:48.118Z,70.60
2022-08-26T06:33:52.231Z,70.50
2022-08-26T06:35:55.426Z,70.40
2022-08-26T06:37:58.222Z,70.30
2022-08-26T06:40:02.379Z,70.30
2022-08-26T06:42:07.233Z,70.30
2022-08-26T06:44:10.333Z,70.10
